sensor_id;sensor_type;location;lat;lon;timestamp;pressure;altitude;pressure_sealevel;temperature
31921;BMP280;66485;52.128;4.436;2023-03-19T00:01:52;101096.47;;;17.91
31921;BMP280;66485;52.128;4.436;2023-03-19T00:04:18;101105.31;;;17.95
31921;BMP280;66485;52.128;4.436;2023-03-19T00:06:43;101104.94;;;17.96
31921;BMP280;66485;52.128;4.436;2023-03-19T00:09:10;101107.66;;;17.96
31921;BMP280;66485;52.128;4.436;2023-03-19T00:11:35;101107.66;;;17.96
31921;BMP280;66485;52.128;4.436;2023-03-19T00:14:00;101109.25;;;17.94
31921;BMP280;66485;52.128;4.436;2023-03-19T00:16:25;101106.53;;;17.94
31921;BMP280;66485;52.128;4.436;2023-03-19T00:18:51;101112.28;;;17.96
31921;BMP280;66485;52.128;4.436;2023-03-19T00:21:16;101111.94;;;17.94
31921;BMP280;66485;52.128;4.436;2023-03-19T00:23:41;101111.94;;;17.94
31921;BMP280;66485;52.128;4.436;2023-03-19T00:26:07;101117.38;;;17.94
31921;BMP280;66485;52.128;4.436;2023-03-19T00:28:32;101109.97;;;17.94
31921;BMP280;66485;52.128;4.436;2023-03-19T00:31:12;101121.59;;;17.95
31921;BMP280;66485;52.128;4.436;2023-03-19T00:33:38;101121.59;;;17.95
31921;BMP280;66485;52.128;4.436;2023-03-19T00:36:04;101123.53;;;17.94
31921;BMP280;66485;52.128;4.436;2023-03-19T00:38:31;101122.03;;;17.93
31921;BMP280;66485;52.128;4.436;2023-03-19T00:40:56;101125.50;;;17.94
31921;BMP280;66485;52.128;4.436;2023-03-19T00:43:23;101128.59;;;17.92
31921;BMP280;66485;52.128;4.436;2023-03-19T00:45:48;101128.59;;;17.92
31921;BMP280;66485;52.128;4.436;2023-03-19T00:48:13;101131.31;;;17.92
31921;BMP280;66485;52.128;4.436;2023-03-19T00:50:38;101129.00;;;17.91
31921;BMP280;66485;52.128;4.436;2023-03-19T00:53:04;101131.72;;;17.91
31921;BMP280;66485;52.128;4.436;2023-03-19T00:55:30;101134.41;;;17.91
31921;BMP280;66485;52.128;4.436;2023-03-19T00:57:55;101135.59;;;17.90
31921;BMP280;66485;52.128;4.436;2023-03-19T01:00:20;101135.59;;;17.90
31921;BMP280;66485;52.128;4.436;2023-03-19T01:02:46;101129.44;;;17.86
31921;BMP280;66485;52.128;4.436;2023-03-19T01:05:11;101125.94;;;17.89
31921;BMP280;66485;52.128;4.436;2023-03-19T01:07:37;101125.94;;;17.89
31921;BMP280;66485;52.128;4.436;2023-03-19T01:10:03;101126.72;;;17.86
31921;BMP280;66485;52.128;4.436;2023-03-19T01:12:28;101129.94;;;17.77
31921;BMP280;66485;52.128;4.436;2023-03-19T01:14:54;101129.94;;;17.77
31921;BMP280;66485;52.128;4.436;2023-03-19T01:17:19;101126.81;;;17.78
31921;BMP280;66485;52.128;4.436;2023-03-19T01:19:45;101127.94;;;17.81
31921;BMP280;66485;52.128;4.436;2023-03-19T01:22:11;101141.84;;;17.83
31921;BMP280;66485;52.128;4.436;2023-03-19T01:24:38;101141.84;;;17.83
31921;BMP280;66485;52.128;4.436;2023-03-19T01:27:03;101135.00;;;17.71
31921;BMP280;66485;52.128;4.436;2023-03-19T01:29:28;101138.53;;;17.68
31921;BMP280;66485;52.128;4.436;2023-03-19T01:31:54;101139.28;;;17.65
31921;BMP280;66485;52.128;4.436;2023-03-19T01:34:20;101139.28;;;17.65
31921;BMP280;66485;52.128;4.436;2023-03-19T01:36:45;101133.50;;;17.67
31921;BMP280;66485;52.128;4.436;2023-03-19T01:39:11;101133.50;;;17.67
31921;BMP280;66485;52.128;4.436;2023-03-19T01:41:36;101133.50;;;17.67
31921;BMP280;66485;52.128;4.436;2023-03-19T01:44:02;101133.50;;;17.67
31921;BMP280;66485;52.128;4.436;2023-03-19T01:46:35;101138.91;;;17.67
31921;BMP280;66485;52.128;4.436;2023-03-19T01:49:04;101140.47;;;17.64
31921;BMP280;66485;52.128;4.436;2023-03-19T01:51:37;101142.00;;;17.65
31921;BMP280;66485;52.128;4.436;2023-03-19T01:54:13;101136.22;;;17.67
31921;BMP280;66485;52.128;4.436;2023-03-19T01:56:40;101137.78;;;17.64
31921;BMP280;66485;52.128;4.436;2023-03-19T02:01:45;101140.09;;;17.62
31921;BMP280;66485;52.128;4.436;2023-03-19T02:04:12;101145.50;;;17.66
31921;BMP280;66485;52.128;4.436;2023-03-19T02:06:38;101144.75;;;17.62
31921;BMP280;66485;52.128;4.436;2023-03-19T02:09:05;101142.41;;;17.64
31921;BMP280;66485;52.128;4.436;2023-03-19T02:11:31;101144.41;;;17.56
31921;BMP280;66485;52.128;4.436;2023-03-19T02:13:56;101135.91;;;17.58
31921;BMP280;66485;52.128;4.436;2023-03-19T02:16:22;101135.91;;;17.58
31921;BMP280;66485;52.128;4.436;2023-03-19T02:18:47;101140.09;;;17.62
31921;BMP280;66485;52.128;4.436;2023-03-19T02:21:17;101137.78;;;17.61
31921;BMP280;66485;52.128;4.436;2023-03-19T02:24:08;101139.78;;;17.57
31921;BMP280;66485;52.128;4.436;2023-03-19T02:26:35;101139.78;;;17.57
31921;BMP280;66485;52.128;4.436;2023-03-19T02:29:01;101137.09;;;17.53
31921;BMP280;66485;52.128;4.436;2023-03-19T02:31:28;101137.09;;;17.53
31921;BMP280;66485;52.128;4.436;2023-03-19T02:33:58;101142.94;;;17.48
31921;BMP280;66485;52.128;4.436;2023-03-19T02:36:41;101137.13;;;17.50
31921;BMP280;66485;52.128;4.436;2023-03-19T02:39:15;101137.13;;;17.50
31921;BMP280;66485;52.128;4.436;2023-03-19T02:41:43;101146.38;;;17.52
31921;BMP280;66485;52.128;4.436;2023-03-19T02:44:08;101146.38;;;17.52
31921;BMP280;66485;52.128;4.436;2023-03-19T02:46:35;101157.53;;;17.61
31921;BMP280;66485;52.128;4.436;2023-03-19T02:49:01;101149.41;;;17.61
31921;BMP280;66485;52.128;4.436;2023-03-19T02:51:26;101150.22;;;17.58
31921;BMP280;66485;52.128;4.436;2023-03-19T02:53:51;101144.03;;;17.54
31921;BMP280;66485;52.128;4.436;2023-03-19T02:56:17;101145.97;;;17.54
31921;BMP280;66485;52.128;4.436;2023-03-19T02:58:42;101149.16;;;17.45
31921;BMP280;66485;52.128;4.436;2023-03-19T03:01:07;101153.41;;;17.46
31921;BMP280;66485;52.128;4.436;2023-03-19T03:03:32;101149.94;;;17.42
31921;BMP280;66485;52.128;4.436;2023-03-19T03:05:58;101146.41;;;17.49
31921;BMP280;66485;52.128;4.436;2023-03-19T03:08:23;101140.28;;;17.45
31921;BMP280;66485;52.128;4.436;2023-03-19T03:10:48;101139.50;;;17.44
31921;BMP280;66485;52.128;4.436;2023-03-19T03:13:14;101143.34;;;17.47
31921;BMP280;66485;52.128;4.436;2023-03-19T03:15:40;101144.16;;;17.40
31921;BMP280;66485;52.128;4.436;2023-03-19T03:18:05;101150.75;;;17.35
31921;BMP280;66485;52.128;4.436;2023-03-19T03:20:31;101148.44;;;17.37
31921;BMP280;66485;52.128;4.436;2023-03-19T03:22:57;101148.44;;;17.37
31921;BMP280;66485;52.128;4.436;2023-03-19T03:25:22;101151.16;;;17.30
31921;BMP280;66485;52.128;4.436;2023-03-19T03:27:48;101151.16;;;17.30
31921;BMP280;66485;52.128;4.436;2023-03-19T03:30:13;101148.56;;;17.23
31921;BMP280;66485;52.128;4.436;2023-03-19T03:32:40;101150.41;;;17.33
31921;BMP280;66485;52.128;4.436;2023-03-19T03:35:07;101148.06;;;17.32
31921;BMP280;66485;52.128;4.436;2023-03-19T03:37:32;101139.19;;;17.35
31921;BMP280;66485;52.128;4.436;2023-03-19T03:39:57;101139.19;;;17.35
31921;BMP280;66485;52.128;4.436;2023-03-19T03:42:23;101145.69;;;17.41
31921;BMP280;66485;52.128;4.436;2023-03-19T03:44:49;101155.03;;;17.33
31921;BMP280;66485;52.128;4.436;2023-03-19T03:47:14;101155.91;;;17.23
31921;BMP280;66485;52.128;4.436;2023-03-19T03:49:42;101155.41;;;17.31
31921;BMP280;66485;52.128;4.436;2023-03-19T03:52:07;101153.91;;;17.34
31921;BMP280;66485;52.128;4.436;2023-03-19T03:54:33;101157.44;;;17.24
31921;BMP280;66485;52.128;4.436;2023-03-19T03:56:58;101157.00;;;17.29
31921;BMP280;66485;52.128;4.436;2023-03-19T03:59:24;101157.34;;;17.31
31921;BMP280;66485;52.128;4.436;2023-03-19T04:01:49;101160.06;;;17.31
31921;BMP280;66485;52.128;4.436;2023-03-19T04:04:15;101162.00;;;17.30
31921;BMP280;66485;52.128;4.436;2023-03-19T04:06:40;101174.03;;;17.29
31921;BMP280;66485;52.128;4.436;2023-03-19T04:09:06;101171.72;;;17.28
31921;BMP280;66485;52.128;4.436;2023-03-19T04:11:33;101182.09;;;17.33
31921;BMP280;66485;52.128;4.436;2023-03-19T04:13:59;101186.38;;;17.34
31921;BMP280;66485;52.128;4.436;2023-03-19T04:16:26;101186.38;;;17.34
31921;BMP280;66485;52.128;4.436;2023-03-19T04:18:52;101174.78;;;17.30
31921;BMP280;66485;52.128;4.436;2023-03-19T04:21:18;101165.84;;;17.33
31921;BMP280;66485;52.128;4.436;2023-03-19T04:23:43;101170.94;;;17.27
31921;BMP280;66485;52.128;4.436;2023-03-19T04:26:09;101168.22;;;17.34
31921;BMP280;66485;52.128;4.436;2023-03-19T04:28:34;101168.22;;;17.34
31921;BMP280;66485;52.128;4.436;2023-03-19T04:31:05;101177.16;;;17.24
31921;BMP280;66485;52.128;4.436;2023-03-19T04:33:31;101179.84;;;17.28
31921;BMP280;66485;52.128;4.436;2023-03-19T04:35:57;101184.50;;;17.24
31921;BMP280;66485;52.128;4.436;2023-03-19T04:38:24;101187.97;;;17.21
31921;BMP280;66485;52.128;4.436;2023-03-19T04:40:53;101188.38;;;17.23
31921;BMP280;66485;52.128;4.436;2023-03-19T04:43:19;101190.31;;;17.22
31921;BMP280;66485;52.128;4.436;2023-03-19T04:45:44;101196.09;;;17.21
31921;BMP280;66485;52.128;4.436;2023-03-19T04:48:10;101202.69;;;17.23
31921;BMP280;66485;52.128;4.436;2023-03-19T04:50:36;101207.34;;;17.23
31921;BMP280;66485;52.128;4.436;2023-03-19T04:53:01;101207.34;;;17.23
31921;BMP280;66485;52.128;4.436;2023-03-19T04:55:27;101203.88;;;17.19
31921;BMP280;66485;52.128;4.436;2023-03-19T04:57:52;101210.81;;;17.20
31921;BMP280;66485;52.128;4.436;2023-03-19T05:00:17;101208.88;;;17.24
31921;BMP280;66485;52.128;4.436;2023-03-19T05:02:43;101208.09;;;17.23
31921;BMP280;66485;52.128;4.436;2023-03-19T05:05:09;101214.28;;;17.24
31921;BMP280;66485;52.128;4.436;2023-03-19T05:07:36;101214.28;;;17.24
31921;BMP280;66485;52.128;4.436;2023-03-19T05:10:02;101213.53;;;17.23
31921;BMP280;66485;52.128;4.436;2023-03-19T05:12:27;101218.94;;;17.20
31921;BMP280;66485;52.128;4.436;2023-03-19T05:14:53;101218.16;;;17.23
31921;BMP280;66485;52.128;4.436;2023-03-19T05:17:18;101230.94;;;17.19
31921;BMP280;66485;52.128;4.436;2023-03-19T05:19:44;101230.94;;;17.19
31921;BMP280;66485;52.128;4.436;2023-03-19T05:22:09;101234.78;;;17.25
31921;BMP280;66485;52.128;4.436;2023-03-19T05:24:34;101238.25;;;17.22
31921;BMP280;66485;52.128;4.436;2023-03-19T05:27:00;101246.00;;;17.23
31921;BMP280;66485;52.128;4.436;2023-03-19T05:29:26;101246.00;;;17.23
31921;BMP280;66485;52.128;4.436;2023-03-19T05:31:52;101241.75;;;17.19
31921;BMP280;66485;52.128;4.436;2023-03-19T05:34:17;101241.75;;;17.19
31921;BMP280;66485;52.128;4.436;2023-03-19T05:36:42;101243.69;;;17.18
31921;BMP280;66485;52.128;4.436;2023-03-19T05:39:08;101243.69;;;17.18
31921;BMP280;66485;52.128;4.436;2023-03-19T05:41:34;101248.34;;;17.18
31921;BMP280;66485;52.128;4.436;2023-03-19T05:43:59;101254.91;;;17.17
31921;BMP280;66485;52.128;4.436;2023-03-19T05:46:25;101251.44;;;17.16
31921;BMP280;66485;52.128;4.436;2023-03-19T05:48:50;101251.44;;;17.16
31921;BMP280;66485;52.128;4.436;2023-03-19T05:51:15;101252.53;;;17.26
31921;BMP280;66485;52.128;4.436;2023-03-19T05:53:41;101261.47;;;17.23
31921;BMP280;66485;52.128;4.436;2023-03-19T05:56:06;101257.22;;;17.18
31921;BMP280;66485;52.128;4.436;2023-03-19T05:58:32;101252.59;;;17.22
31921;BMP280;66485;52.128;4.436;2023-03-19T06:00:57;101252.53;;;17.29
31921;BMP280;66485;52.128;4.436;2023-03-19T06:03:22;101257.53;;;17.31
31921;BMP280;66485;52.128;4.436;2023-03-19T06:05:48;101258.34;;;17.28
31921;BMP280;66485;52.128;4.436;2023-03-19T06:08:14;101262.97;;;17.34
31921;BMP280;66485;52.128;4.436;2023-03-19T06:10:40;101262.97;;;17.34
31921;BMP280;66485;52.128;4.436;2023-03-19T06:13:05;101257.13;;;17.39
31921;BMP280;66485;52.128;4.436;2023-03-19T06:15:31;101262.88;;;17.41
31921;BMP280;66485;52.128;4.436;2023-03-19T06:17:57;101259.06;;;17.39
31921;BMP280;66485;52.128;4.436;2023-03-19T06:20:22;101271.44;;;17.40
31921;BMP280;66485;52.128;4.436;2023-03-19T06:22:47;101274.16;;;17.40
31921;BMP280;66485;52.128;4.436;2023-03-19T06:25:13;101270.66;;;17.39
31921;BMP280;66485;52.128;4.436;2023-03-19T06:27:38;101273.75;;;17.38
31921;BMP280;66485;52.128;4.436;2023-03-19T06:30:04;101273.75;;;17.38
31921;BMP280;66485;52.128;4.436;2023-03-19T06:32:30;101287.69;;;17.40
31921;BMP280;66485;52.128;4.436;2023-03-19T06:34:55;101288.81;;;17.42
31921;BMP280;66485;52.128;4.436;2023-03-19T06:37:21;101298.50;;;17.40
31921;BMP280;66485;52.128;4.436;2023-03-19T06:39:46;101300.41;;;17.43
31921;BMP280;66485;52.128;4.436;2023-03-19T06:42:12;101300.41;;;17.43
31921;BMP280;66485;52.128;4.436;2023-03-19T06:44:38;101305.44;;;17.41
31921;BMP280;66485;52.128;4.436;2023-03-19T06:47:04;101310.13;;;17.44
31921;BMP280;66485;52.128;4.436;2023-03-19T06:49:29;101312.41;;;17.42
31921;BMP280;66485;52.128;4.436;2023-03-19T06:51:54;101311.25;;;17.43
31921;BMP280;66485;52.128;4.436;2023-03-19T06:54:20;101316.31;;;17.37
31921;BMP280;66485;52.128;4.436;2023-03-19T06:56:45;101316.66;;;17.43
31921;BMP280;66485;52.128;4.436;2023-03-19T06:59:11;101325.59;;;17.40
31921;BMP280;66485;52.128;4.436;2023-03-19T07:01:39;101315.16;;;17.38
31921;BMP280;66485;52.128;4.436;2023-03-19T07:04:05;101317.91;;;17.35
31921;BMP280;66485;52.128;4.436;2023-03-19T07:06:30;101317.91;;;17.35
31921;BMP280;66485;52.128;4.436;2023-03-19T07:08:55;101323.31;;;17.35
31921;BMP280;66485;52.128;4.436;2023-03-19T07:11:21;101324.06;;;17.35
31921;BMP280;66485;52.128;4.436;2023-03-19T07:13:46;101332.94;;;17.36
31921;BMP280;66485;52.128;4.436;2023-03-19T07:16:11;101337.19;;;17.37
31921;BMP280;66485;52.128;4.436;2023-03-19T07:18:37;101332.59;;;17.34
31921;BMP280;66485;52.128;4.436;2023-03-19T07:21:03;101332.59;;;17.34
31921;BMP280;66485;52.128;4.436;2023-03-19T07:23:28;101339.19;;;17.26
31921;BMP280;66485;52.128;4.436;2023-03-19T07:25:53;101341.53;;;17.24
31921;BMP280;66485;52.128;4.436;2023-03-19T07:28:19;101351.97;;;17.25
31921;BMP280;66485;52.128;4.436;2023-03-19T07:30:44;101348.09;;;17.23
31921;BMP280;66485;52.128;4.436;2023-03-19T07:33:10;101348.09;;;17.23
31921;BMP280;66485;52.128;4.436;2023-03-19T07:35:35;101351.59;;;17.23
31921;BMP280;66485;52.128;4.436;2023-03-19T07:38:01;101356.22;;;17.23
31921;BMP280;66485;52.128;4.436;2023-03-19T07:40:27;101354.28;;;17.23
31921;BMP280;66485;52.128;4.436;2023-03-19T07:42:52;101357.00;;;17.23
31921;BMP280;66485;52.128;4.436;2023-03-19T07:45:18;101357.78;;;17.24
31921;BMP280;66485;52.128;4.436;2023-03-19T07:47:43;101364.34;;;17.23
31921;BMP280;66485;52.128;4.436;2023-03-19T07:50:09;101364.34;;;17.23
31921;BMP280;66485;52.128;4.436;2023-03-19T07:52:35;101362.41;;;17.23
31921;BMP280;66485;52.128;4.436;2023-03-19T07:55:00;101362.41;;;17.23
31921;BMP280;66485;52.128;4.436;2023-03-19T07:57:26;101368.22;;;17.25
31921;BMP280;66485;52.128;4.436;2023-03-19T07:59:51;101368.19;;;17.22
31921;BMP280;66485;52.128;4.436;2023-03-19T08:02:17;101380.97;;;17.25
31921;BMP280;66485;52.128;4.436;2023-03-19T08:04:42;101380.97;;;17.25
31921;BMP280;66485;52.128;4.436;2023-03-19T08:07:08;101379.81;;;17.22
31921;BMP280;66485;52.128;4.436;2023-03-19T08:09:37;101379.81;;;17.22
31921;BMP280;66485;52.128;4.436;2023-03-19T08:12:04;101381.38;;;17.23
31921;BMP280;66485;52.128;4.436;2023-03-19T08:14:29;101379.41;;;17.20
31921;BMP280;66485;52.128;4.436;2023-03-19T08:16:54;101389.50;;;17.23
31921;BMP280;66485;52.128;4.436;2023-03-19T08:19:20;101394.91;;;17.23
31921;BMP280;66485;52.128;4.436;2023-03-19T08:21:46;101395.66;;;17.20
31921;BMP280;66485;52.128;4.436;2023-03-19T08:24:11;101395.66;;;17.20
31921;BMP280;66485;52.128;4.436;2023-03-19T08:26:36;101397.59;;;17.23
31921;BMP280;66485;52.128;4.436;2023-03-19T08:29:02;101408.06;;;17.25
31921;BMP280;66485;52.128;4.436;2023-03-19T08:31:28;101410.38;;;17.23
31921;BMP280;66485;52.128;4.436;2023-03-19T08:33:54;101409.97;;;17.24
31921;BMP280;66485;52.128;4.436;2023-03-19T08:36:20;101410.38;;;17.23
31921;BMP280;66485;52.128;4.436;2023-03-19T08:38:45;101418.88;;;17.25
31921;BMP280;66485;52.128;4.436;2023-03-19T08:41:11;101419.66;;;17.25
31921;BMP280;66485;52.128;4.436;2023-03-19T08:43:36;101420.81;;;17.24
31921;BMP280;66485;52.128;4.436;2023-03-19T08:46:03;101420.81;;;17.24
31921;BMP280;66485;52.128;4.436;2023-03-19T08:48:29;101417.72;;;17.22
31921;BMP280;66485;52.128;4.436;2023-03-19T08:50:57;101430.47;;;17.25
31921;BMP280;66485;52.128;4.436;2023-03-19T08:53:22;101428.53;;;17.29
31921;BMP280;66485;52.128;4.436;2023-03-19T08:55:56;101433.53;;;17.31
31921;BMP280;66485;52.128;4.436;2023-03-19T08:58:21;101436.25;;;17.27
31921;BMP280;66485;52.128;4.436;2023-03-19T09:00:48;101436.25;;;17.27
31921;BMP280;66485;52.128;4.436;2023-03-19T09:03:14;101429.72;;;17.25
31921;BMP280;66485;52.128;4.436;2023-03-19T09:05:40;101429.72;;;17.25
31921;BMP280;66485;52.128;4.436;2023-03-19T09:08:05;101431.22;;;17.26
31921;BMP280;66485;52.128;4.436;2023-03-19T09:10:31;101439.75;;;17.35
31921;BMP280;66485;52.128;4.436;2023-03-19T09:12:57;101439.75;;;17.35
31921;BMP280;66485;52.128;4.436;2023-03-19T09:15:22;101445.13;;;17.38
31921;BMP280;66485;52.128;4.436;2023-03-19T09:17:48;101449.00;;;17.37
31921;BMP280;66485;52.128;4.436;2023-03-19T09:20:13;101449.00;;;17.37
31921;BMP280;66485;52.128;4.436;2023-03-19T09:22:39;101445.13;;;17.31
31921;BMP280;66485;52.128;4.436;2023-03-19T09:25:05;101445.13;;;17.31
31921;BMP280;66485;52.128;4.436;2023-03-19T09:27:30;101452.47;;;17.31
31921;BMP280;66485;52.128;4.436;2023-03-19T09:29:56;101462.94;;;17.32
31921;BMP280;66485;52.128;4.436;2023-03-19T09:32:22;101458.66;;;17.31
31921;BMP280;66485;52.128;4.436;2023-03-19T09:34:47;101469.91;;;17.33
31921;BMP280;66485;52.128;4.436;2023-03-19T09:37:12;101469.53;;;17.35
31921;BMP280;66485;52.128;4.436;2023-03-19T09:39:38;101467.56;;;17.35
31921;BMP280;66485;52.128;4.436;2023-03-19T09:44:39;101479.19;;;17.39
31921;BMP280;66485;52.128;4.436;2023-03-19T09:47:27;101479.19;;;17.39
31921;BMP280;66485;52.128;4.436;2023-03-19T09:50:03;101484.97;;;17.41
31921;BMP280;66485;52.128;4.436;2023-03-19T09:55:46;101495.41;;;17.43
31921;BMP280;66485;52.128;4.436;2023-03-19T09:58:16;101495.41;;;17.43
31921;BMP280;66485;52.128;4.436;2023-03-19T10:00:43;101492.69;;;17.47
31921;BMP280;66485;52.128;4.436;2023-03-19T10:03:40;101492.69;;;17.47
31921;BMP280;66485;52.128;4.436;2023-03-19T10:09:03;101496.19;;;17.47
31921;BMP280;66485;52.128;4.436;2023-03-19T10:12:19;101502.38;;;17.48
31921;BMP280;66485;52.128;4.436;2023-03-19T10:17:29;101511.25;;;17.48
31921;BMP280;66485;52.128;4.436;2023-03-19T10:19:57;101512.41;;;17.51
31921;BMP280;66485;52.128;4.436;2023-03-19T10:22:35;101515.53;;;17.46
31921;BMP280;66485;52.128;4.436;2023-03-19T10:25:02;101514.38;;;17.47
31921;BMP280;66485;52.128;4.436;2023-03-19T10:27:28;101520.16;;;17.49
31921;BMP280;66485;52.128;4.436;2023-03-19T10:29:54;101510.84;;;17.53
31921;BMP280;66485;52.128;4.436;2023-03-19T10:32:26;101510.84;;;17.53
31921;BMP280;66485;52.128;4.436;2023-03-19T10:34:55;101521.69;;;17.53
31921;BMP280;66485;52.128;4.436;2023-03-19T10:37:28;101524.41;;;17.53
31921;BMP280;66485;52.128;4.436;2023-03-19T10:39:56;101524.41;;;17.53
31921;BMP280;66485;52.128;4.436;2023-03-19T10:47:37;101521.34;;;17.55
31921;BMP280;66485;52.128;4.436;2023-03-19T10:50:03;101522.84;;;17.59
31921;BMP280;66485;52.128;4.436;2023-03-19T10:52:34;101517.44;;;17.59
31921;BMP280;66485;52.128;4.436;2023-03-19T10:55:04;101525.94;;;17.61
31921;BMP280;66485;52.128;4.436;2023-03-19T10:57:31;101528.63;;;17.61
31921;BMP280;66485;52.128;4.436;2023-03-19T11:00:02;101526.34;;;17.56
31921;BMP280;66485;52.128;4.436;2023-03-19T11:02:29;101527.13;;;17.57
31921;BMP280;66485;52.128;4.436;2023-03-19T11:07:34;101533.31;;;17.57
31921;BMP280;66485;52.128;4.436;2023-03-19T11:10:00;101533.31;;;17.57
31921;BMP280;66485;52.128;4.436;2023-03-19T11:12:30;101534.47;;;17.56
31921;BMP280;66485;52.128;4.436;2023-03-19T11:14:56;101536.41;;;17.56
31921;BMP280;66485;52.128;4.436;2023-03-19T11:17:24;101541.44;;;17.57
31921;BMP280;66485;52.128;4.436;2023-03-19T11:19:57;101541.44;;;17.57
31921;BMP280;66485;52.128;4.436;2023-03-19T11:22:29;101544.50;;;17.63
31921;BMP280;66485;52.128;4.436;2023-03-19T11:25:14;101549.53;;;17.61
31921;BMP280;66485;52.128;4.436;2023-03-19T11:27:39;101549.53;;;17.61
31921;BMP280;66485;52.128;4.436;2023-03-19T11:30:18;101543.38;;;17.57
31921;BMP280;66485;52.128;4.436;2023-03-19T11:33:04;101552.25;;;17.54
31921;BMP280;66485;52.128;4.436;2023-03-19T11:35:36;101550.72;;;17.56
31921;BMP280;66485;52.128;4.436;2023-03-19T11:38:11;101553.03;;;17.61
31921;BMP280;66485;52.128;4.436;2023-03-19T11:41:00;101556.13;;;17.63
31921;BMP280;66485;52.128;4.436;2023-03-19T11:43:43;101558.06;;;17.66
31921;BMP280;66485;52.128;4.436;2023-03-19T11:46:25;101557.28;;;17.66
31921;BMP280;66485;52.128;4.436;2023-03-19T11:54:24;101567.34;;;17.69
31921;BMP280;66485;52.128;4.436;2023-03-19T11:57:03;101556.09;;;17.70
31921;BMP280;66485;52.128;4.436;2023-03-19T11:59:53;101558.81;;;17.70
31921;BMP280;66485;52.128;4.436;2023-03-19T12:13:21;101569.22;;;17.75
31921;BMP280;66485;52.128;4.436;2023-03-19T12:19:05;101567.69;;;17.82
31921;BMP280;66485;52.128;4.436;2023-03-19T12:30:03;101578.91;;;17.84
31921;BMP280;66485;52.128;4.436;2023-03-19T12:35:12;101578.13;;;17.83
31921;BMP280;66485;52.128;4.436;2023-03-19T12:37:44;101578.13;;;17.83
31921;BMP280;66485;52.128;4.436;2023-03-19T12:42:38;101577.38;;;17.83
31921;BMP280;66485;52.128;4.436;2023-03-19T12:45:33;101583.16;;;17.85
31921;BMP280;66485;52.128;4.436;2023-03-19T12:48:06;101583.16;;;17.85
31921;BMP280;66485;52.128;4.436;2023-03-19T12:50:36;101591.31;;;17.81
31921;BMP280;66485;52.128;4.436;2023-03-19T12:53:05;101603.69;;;17.82
31921;BMP280;66485;52.128;4.436;2023-03-19T12:55:42;101601.75;;;17.83
31921;BMP280;66485;52.128;4.436;2023-03-19T12:58:27;101610.66;;;17.83
31921;BMP280;66485;52.128;4.436;2023-03-19T13:01:12;101609.88;;;17.83
31921;BMP280;66485;52.128;4.436;2023-03-19T13:03:57;101608.34;;;17.82
31921;BMP280;66485;52.128;4.436;2023-03-19T13:06:37;101624.59;;;17.82
31921;BMP280;66485;52.128;4.436;2023-03-19T13:09:21;101624.59;;;17.82
31921;BMP280;66485;52.128;4.436;2023-03-19T13:11:54;101623.81;;;17.81
31921;BMP280;66485;52.128;4.436;2023-03-19T13:14:29;101623.81;;;17.81
31921;BMP280;66485;52.128;4.436;2023-03-19T13:19:48;101605.25;;;17.79
31921;BMP280;66485;52.128;4.436;2023-03-19T13:22:20;101607.56;;;17.81
31921;BMP280;66485;52.128;4.436;2023-03-19T13:24:47;101607.56;;;17.81
31921;BMP280;66485;52.128;4.436;2023-03-19T13:27:33;101605.25;;;17.79
31921;BMP280;66485;52.128;4.436;2023-03-19T13:30:16;101614.13;;;17.80
31921;BMP280;66485;52.128;4.436;2023-03-19T13:32:46;101614.13;;;17.80
31921;BMP280;66485;52.128;4.436;2023-03-19T13:43:19;101631.94;;;17.85
31921;BMP280;66485;52.128;4.436;2023-03-19T13:45:50;101631.94;;;17.85
31921;BMP280;66485;52.128;4.436;2023-03-19T13:48:32;101647.03;;;17.86
31921;BMP280;66485;52.128;4.436;2023-03-19T13:51:21;101647.03;;;17.86
31921;BMP280;66485;52.128;4.436;2023-03-19T13:59:36;101647.81;;;17.83
31921;BMP280;66485;52.128;4.436;2023-03-19T14:07:29;101669.50;;;17.83
31921;BMP280;66485;52.128;4.436;2023-03-19T14:12:30;101667.56;;;17.83
31921;BMP280;66485;52.128;4.436;2023-03-19T14:15:03;101667.56;;;17.83
31921;BMP280;66485;52.128;4.436;2023-03-19T14:17:41;101673.78;;;17.84
31921;BMP280;66485;52.128;4.436;2023-03-19T14:22:39;101665.25;;;17.82
31921;BMP280;66485;52.128;4.436;2023-03-19T14:27:49;101665.25;;;17.82
31921;BMP280;66485;52.128;4.436;2023-03-19T14:30:37;101664.88;;;17.83
31921;BMP280;66485;52.128;4.436;2023-03-19T14:33:16;101668.72;;;17.82
31921;BMP280;66485;52.128;4.436;2023-03-19T14:35:45;101666.78;;;17.83
31921;BMP280;66485;52.128;4.436;2023-03-19T14:38:16;101673.00;;;17.83
31921;BMP280;66485;52.128;4.436;2023-03-19T14:40:50;101674.94;;;17.83
31921;BMP280;66485;52.128;4.436;2023-03-19T14:43:40;101674.16;;;17.82
31921;BMP280;66485;52.128;4.436;2023-03-19T14:46:55;101681.50;;;17.82
31921;BMP280;66485;52.128;4.436;2023-03-19T14:52:42;101684.22;;;17.82
31921;BMP280;66485;52.128;4.436;2023-03-19T14:55:12;101684.22;;;17.82
31921;BMP280;66485;52.128;4.436;2023-03-19T14:57:37;101693.91;;;17.79
31921;BMP280;66485;52.128;4.436;2023-03-19T15:00:05;101693.91;;;17.79
31921;BMP280;66485;52.128;4.436;2023-03-19T15:05:03;101685.00;;;17.78
31921;BMP280;66485;52.128;4.436;2023-03-19T15:07:56;101693.53;;;17.77
31921;BMP280;66485;52.128;4.436;2023-03-19T15:10:27;101694.31;;;17.77
31921;BMP280;66485;52.128;4.436;2023-03-19T15:18:42;101690.44;;;17.78
31921;BMP280;66485;52.128;4.436;2023-03-19T15:21:07;101688.09;;;17.77
31921;BMP280;66485;52.128;4.436;2023-03-19T15:23:33;101693.13;;;17.78
31921;BMP280;66485;52.128;4.436;2023-03-19T15:26:01;101685.41;;;17.77
31921;BMP280;66485;52.128;4.436;2023-03-19T15:28:44;101688.88;;;17.77
31921;BMP280;66485;52.128;4.436;2023-03-19T15:31:11;101683.03;;;17.75
31921;BMP280;66485;52.128;4.436;2023-03-19T15:33:37;101680.34;;;17.75
31921;BMP280;66485;52.128;4.436;2023-03-19T15:38:38;101681.09;;;17.76
31921;BMP280;66485;52.128;4.436;2023-03-19T15:41:06;101675.72;;;17.72
31921;BMP280;66485;52.128;4.436;2023-03-19T15:43:34;101681.50;;;17.74